createdAt,value
2019-02-28T00:01:49.219Z,36.48
2019-02-28T00:04:18.244Z,39.48
2019-02-28T00:06:47.184Z,35.10
2019-02-28T00:09:16.523Z,33.88
2019-02-28T00:11:45.427Z,33.13
2019-02-28T00:14:14.373Z,35.92
2019-02-28T00:16:44.092Z,35.63
2019-02-28T00:19:13.060Z,36.73
2019-02-28T00:21:42.378Z,33.92
2019-02-28T00:24:11.290Z,37.83
2019-02-28T00:26:46.298Z,34.43
2019-02-28T00:29:10.773Z,35.78
2019-02-28T00:31:39.817Z,29.98
2019-02-28T00:34:08.656Z,29.98
2019-02-28T00:36:37.689Z,33.95
2019-02-28T00:39:07.224Z,32.93
2019-02-28T00:41:36.529Z,29.82
2019-02-28T00:44:05.537Z,29.63
2019-02-28T00:46:34.740Z,31.60
2019-02-28T00:49:03.773Z,31.85
2019-02-28T00:51:32.693Z,34.98
2019-02-28T00:54:01.656Z,31.80
2019-02-28T00:56:30.948Z,32.58
2019-02-28T00:59:00.448Z,35.90
2019-02-28T01:01:30.428Z,34.48
2019-02-28T01:04:00.245Z,31.80
2019-02-28T01:06:29.100Z,33.07
2019-02-28T01:08:58.097Z,33.02
2019-02-28T01:11:27.348Z,31.97
2019-02-28T01:13:58.054Z,28.60
2019-02-28T01:16:27.020Z,27.75
2019-02-28T01:18:55.865Z,31.07
2019-02-28T01:21:24.818Z,27.67
2019-02-28T01:23:53.780Z,28.62
2019-02-28T01:26:22.816Z,29.42
2019-02-28T01:28:52.101Z,28.10
2019-02-28T01:31:21.096Z,28.70
2019-02-28T01:33:50.015Z,27.67
2019-02-28T01:36:18.942Z,29.98
2019-02-28T01:38:47.906Z,29.67
2019-02-28T01:41:16.731Z,27.37
2019-02-28T01:43:45.601Z,26.95
2019-02-28T01:46:20.770Z,25.82
2019-02-28T01:48:50.008Z,27.90
2019-02-28T01:51:18.965Z,34.95
2019-02-28T01:53:50.411Z,31.23
2019-02-28T01:56:18.647Z,25.90
2019-02-28T01:58:50.420Z,29.12
2019-02-28T02:01:18.512Z,24.80
2019-02-28T02:03:47.709Z,27.65
2019-02-28T02:06:16.646Z,26.07
2019-02-28T02:08:45.944Z,26.77
2019-02-28T02:11:15.045Z,27.62
2019-02-28T02:13:43.897Z,26.97
2019-02-28T02:16:12.847Z,29.12
2019-02-28T02:18:43.398Z,28.92
2019-02-28T02:21:12.437Z,28.65
2019-02-28T02:23:41.402Z,28.07
2019-02-28T02:26:11.250Z,30.05
2019-02-28T02:28:40.848Z,27.58
2019-02-28T02:31:09.807Z,29.15
2019-02-28T02:33:38.568Z,28.90
2019-02-28T02:36:07.563Z,29.63
2019-02-28T02:38:41.489Z,30.82
2019-02-28T02:41:07.334Z,29.25
2019-02-28T02:43:36.119Z,28.15
2019-02-28T02:46:04.952Z,30.25
2019-02-28T02:48:33.737Z,29.90
2019-02-28T02:51:02.513Z,28.17
2019-02-28T02:53:31.408Z,30.95
2019-02-28T02:56:03.864Z,26.75
2019-02-28T02:58:31.197Z,28.75
2019-02-28T03:01:00.011Z,27.43
2019-02-28T03:03:28.807Z,30.17
2019-02-28T03:05:57.644Z,32.00
2019-02-28T03:08:26.534Z,27.17
2019-02-28T03:10:55.322Z,30.00
2019-02-28T03:13:24.097Z,28.12
2019-02-28T03:15:53.231Z,29.57
2019-02-28T03:18:22.320Z,29.87
2019-02-28T03:20:51.134Z,32.35
2019-02-28T03:23:20.103Z,28.98
2019-02-28T03:25:49.209Z,29.95
2019-02-28T03:28:17.963Z,33.25
2019-02-28T03:30:46.797Z,31.30
2019-02-28T03:33:27.366Z,31.30
2019-02-28T03:35:46.082Z,28.92
2019-02-28T03:38:14.885Z,28.17
2019-02-28T03:40:43.730Z,28.32
2019-02-28T03:43:13.070Z,28.38
2019-02-28T03:45:41.906Z,29.15
2019-02-28T03:48:10.706Z,28.10
2019-02-28T03:50:39.731Z,29.00
2019-02-28T03:53:08.798Z,26.20
2019-02-28T03:55:40.669Z,27.77
2019-02-28T03:58:08.298Z,28.87
2019-02-28T04:00:37.187Z,31.75
2019-02-28T04:03:06.065Z,29.35
2019-02-28T04:05:34.903Z,28.70
2019-02-28T04:08:03.741Z,31.70
2019-02-28T04:10:32.566Z,31.48
2019-02-28T04:13:01.469Z,29.07
2019-02-28T04:15:30.383Z,33.15
2019-02-28T04:18:03.302Z,29.32
2019-02-28T04:20:35.935Z,27.98
2019-02-28T04:23:01.290Z,29.32
2019-02-28T04:25:30.171Z,28.98
2019-02-28T04:27:59.202Z,29.37
2019-02-28T04:30:32.120Z,29.77
2019-02-28T04:33:01.692Z,29.35
2019-02-28T04:35:31.440Z,28.57
2019-02-28T04:38:00.524Z,28.83
2019-02-28T04:40:29.296Z,28.20
2019-02-28T04:42:58.355Z,27.82
2019-02-28T04:45:27.215Z,26.77
2019-02-28T04:47:56.060Z,31.75
2019-02-28T04:50:24.887Z,27.25
2019-02-28T04:52:53.682Z,28.27
2019-02-28T04:55:22.467Z,29.98
2019-02-28T04:57:52.233Z,29.92
2019-02-28T05:00:21.351Z,30.25
2019-02-28T05:02:53.856Z,27.40
2019-02-28T05:05:20.890Z,31.70
2019-02-28T05:07:49.674Z,28.17
2019-02-28T05:10:19.295Z,30.82
2019-02-28T05:12:49.056Z,31.15
2019-02-28T05:17:06.506Z,28.83
2019-02-28T05:18:52.894Z,27.90
2019-02-28T05:21:21.854Z,30.30
2019-02-28T05:23:50.659Z,28.57
2019-02-28T05:26:19.992Z,27.70
2019-02-28T05:28:50.479Z,29.72
2019-02-28T05:31:19.515Z,27.93
2019-02-28T05:33:48.758Z,27.25
2019-02-28T05:36:17.589Z,29.67
2019-02-28T05:38:49.710Z,29.87
2019-02-28T05:41:20.610Z,28.67
2019-02-28T05:43:49.878Z,29.18
2019-02-28T05:46:20.252Z,27.00
2019-02-28T05:48:49.594Z,27.90
2019-02-28T05:51:18.569Z,31.10
2019-02-28T05:53:47.427Z,29.85
2019-02-28T05:56:16.296Z,27.27
2019-02-28T05:58:45.092Z,27.98
2019-02-28T06:01:13.948Z,29.98
2019-02-28T06:03:43.325Z,28.77
2019-02-28T06:06:12.127Z,28.50
2019-02-28T06:08:41.222Z,29.37
2019-02-28T06:11:10.111Z,27.42
2019-02-28T06:13:38.946Z,28.73
2019-02-28T06:16:11.177Z,28.55
2019-02-28T06:18:38.610Z,26.48
2019-02-28T06:21:07.559Z,26.87
2019-02-28T06:23:36.394Z,28.10
2019-02-28T06:26:05.346Z,31.27
2019-02-28T06:28:34.110Z,28.57
2019-02-28T06:31:03.043Z,30.15
2019-02-28T06:33:33.695Z,31.30
2019-02-28T06:36:04.491Z,29.10
2019-02-28T06:38:32.940Z,27.80
2019-02-28T06:41:04.339Z,28.47
2019-02-28T06:43:32.971Z,30.43
2019-02-28T06:46:03.689Z,29.00
2019-02-28T06:48:32.528Z,29.82
2019-02-28T06:51:01.314Z,28.83
2019-02-28T06:53:33.783Z,27.37
2019-02-28T06:56:02.334Z,29.35
2019-02-28T06:58:33.322Z,28.05
2019-02-28T07:01:01.806Z,26.45
2019-02-28T07:03:30.557Z,29.30
2019-02-28T07:06:01.027Z,28.63
2019-02-28T07:08:30.394Z,30.30
2019-02-28T07:10:59.246Z,29.60
2019-02-28T07:13:29.007Z,27.98
2019-02-28T07:15:59.082Z,27.17
2019-02-28T07:18:28.298Z,28.35
2019-02-28T07:20:57.070Z,27.20
2019-02-28T07:23:26.681Z,27.80
2019-02-28T07:25:56.562Z,24.87
2019-02-28T07:28:25.623Z,25.20
2019-02-28T07:30:54.715Z,26.00
2019-02-28T07:33:23.687Z,27.48
2019-02-28T07:35:52.463Z,27.62
2019-02-28T07:38:21.634Z,27.40
2019-02-28T07:40:50.509Z,29.73
2019-02-28T07:43:19.302Z,25.05
2019-02-28T07:45:48.094Z,27.48
2019-02-28T07:48:16.881Z,26.25
2019-02-28T07:50:46.801Z,26.75
2019-02-28T07:53:16.570Z,23.87
2019-02-28T07:55:45.398Z,24.70
2019-02-28T07:58:14.191Z,25.97
2019-02-28T08:00:43.027Z,25.00
2019-02-28T08:03:12.092Z,25.32
2019-02-28T08:05:41.170Z,24.95
2019-02-28T08:08:10.024Z,25.20
2019-02-28T08:10:39.266Z,27.52
2019-02-28T08:13:08.128Z,25.65
2019-02-28T08:15:37.022Z,28.03
2019-02-28T08:18:06.060Z,28.07
2019-02-28T08:20:35.102Z,25.77
2019-02-28T08:23:03.981Z,26.37
2019-02-28T08:25:32.845Z,26.00
2019-02-28T08:28:01.734Z,28.25
2019-02-28T08:30:30.665Z,26.40
2019-02-28T08:32:59.617Z,26.30
2019-02-28T08:35:34.089Z,30.35
2019-02-28T08:37:59.477Z,27.67
2019-02-28T08:40:28.450Z,26.05
2019-02-28T08:42:57.286Z,26.65
2019-02-28T08:45:26.259Z,25.97
2019-02-28T08:47:56.877Z,25.35
2019-02-28T08:50:26.054Z,23.70
2019-02-28T08:52:54.999Z,23.10
2019-02-28T08:55:28.635Z,23.03
2019-02-28T08:57:57.678Z,23.87
2019-02-28T09:00:31.088Z,24.57
2019-02-28T09:02:55.531Z,24.23
2019-02-28T09:05:26.168Z,23.98
2019-02-28T09:07:55.155Z,23.12
2019-02-28T09:10:24.387Z,25.30
2019-02-28T09:12:53.313Z,23.75
2019-02-28T09:15:22.243Z,24.70
2019-02-28T09:17:51.298Z,23.40
2019-02-28T09:20:20.252Z,22.77
2019-02-28T09:22:49.387Z,22.37
2019-02-28T09:25:21.368Z,24.55
2019-02-28T09:27:48.959Z,22.80
2019-02-28T09:30:20.851Z,23.77
2019-02-28T09:32:49.813Z,21.95
2019-02-28T09:35:18.782Z,24.07
2019-02-28T09:37:47.664Z,22.85
2019-02-28T09:40:16.544Z,22.48
2019-02-28T09:42:47.989Z,20.97
2019-02-28T09:45:17.879Z,24.05
2019-02-28T09:47:46.786Z,23.80
2019-02-28T09:50:19.453Z,24.80
2019-02-28T09:52:48.111Z,24.02
2019-02-28T09:55:17.107Z,27.17
2019-02-28T09:57:46.027Z,23.75
2019-02-28T10:00:17.096Z,24.72
2019-02-28T10:02:46.331Z,24.45
2019-02-28T10:05:15.252Z,24.23
2019-02-28T10:07:44.126Z,23.87
2019-02-28T10:10:17.430Z,25.27
2019-02-28T10:12:45.654Z,24.65
2019-02-28T10:15:16.171Z,27.10
2019-02-28T10:17:45.095Z,25.57
2019-02-28T10:20:26.951Z,26.25
2019-02-28T10:22:55.466Z,25.77
2019-02-28T10:25:24.326Z,27.52
2019-02-28T10:27:54.668Z,28.80
2019-02-28T10:30:31.259Z,30.65
2019-02-28T10:32:54.535Z,26.73
2019-02-28T10:35:24.307Z,30.75
2019-02-28T10:37:57.460Z,32.03
2019-02-28T10:40:24.437Z,28.90
2019-02-28T10:42:53.365Z,33.35
2019-02-28T10:45:22.541Z,33.95
2019-02-28T10:47:51.779Z,30.82
2019-02-28T10:50:22.026Z,31.30
2019-02-28T10:52:50.907Z,32.20
2019-02-28T10:55:22.421Z,31.40
2019-02-28T10:57:51.326Z,32.93
2019-02-28T11:00:23.843Z,30.08
2019-02-28T11:02:54.182Z,30.57
2019-02-28T11:05:27.494Z,33.20
2019-02-28T11:07:56.724Z,31.68
2019-02-28T11:10:35.032Z,31.60
2019-02-28T11:13:00.490Z,36.68
2019-02-28T11:15:29.487Z,34.85
2019-02-28T11:17:58.545Z,34.58
2019-02-28T11:20:27.493Z,33.90
2019-02-28T11:22:56.483Z,34.45
2019-02-28T11:25:26.416Z,31.85
2019-02-28T11:27:55.332Z,37.15
2019-02-28T11:30:25.350Z,33.93
2019-02-28T11:32:54.431Z,34.90
2019-02-28T11:35:24.013Z,33.73
2019-02-28T11:37:53.051Z,30.30
2019-02-28T11:40:24.139Z,33.20
2019-02-28T11:42:53.178Z,32.60
2019-02-28T11:45:25.349Z,31.27
2019-02-28T11:47:56.009Z,33.80
2019-02-28T11:50:24.775Z,31.77
2019-02-28T11:52:53.730Z,31.73
2019-02-28T11:55:22.669Z,30.00
2019-02-28T11:57:52.316Z,29.37
2019-02-28T12:00:24.011Z,32.10
2019-02-28T12:02:53.771Z,32.80
2019-02-28T12:05:23.911Z,30.70
2019-02-28T12:07:52.790Z,27.45
2019-02-28T12:10:21.650Z,29.05
2019-02-28T12:12:50.575Z,28.23
2019-02-28T12:15:22.589Z,27.73
2019-02-28T12:17:51.350Z,26.85
2019-02-28T12:20:25.823Z,26.87
2019-02-28T12:22:50.885Z,25.88
2019-02-28T12:25:20.186Z,24.92
2019-02-28T12:27:49.011Z,24.47
2019-02-28T12:30:26.110Z,27.02
2019-02-28T12:32:55.306Z,23.07
2019-02-28T12:35:24.207Z,22.13
2019-02-28T12:37:54.044Z,26.80
2019-02-28T12:40:25.559Z,25.30
2019-02-28T12:42:54.642Z,26.45
2019-02-28T12:45:34.651Z,26.12
2019-02-28T12:48:03.615Z,19.98
2019-02-28T12:50:32.466Z,20.02
2019-02-28T12:53:01.336Z,20.50
2019-02-28T12:55:30.287Z,22.37
2019-02-28T12:57:59.087Z,22.40
2019-02-28T13:00:33.931Z,20.43
2019-02-28T13:03:02.736Z,21.62
2019-02-28T13:05:32.088Z,21.35
2019-02-28T13:08:01.061Z,18.25
2019-02-28T13:10:31.162Z,22.65
2019-02-28T13:13:06.466Z,21.50
2019-02-28T13:15:31.051Z,20.00
2019-02-28T13:17:59.923Z,23.15
2019-02-28T13:20:33.521Z,21.42
2019-02-28T13:23:01.226Z,20.55
2019-02-28T13:25:30.354Z,22.95
2019-02-28T13:27:59.396Z,21.45
2019-02-28T13:30:28.764Z,22.60
2019-02-28T13:32:57.761Z,25.97
2019-02-28T13:35:28.462Z,25.90
2019-02-28T13:37:57.723Z,23.03
2019-02-28T13:40:26.696Z,23.98
2019-02-28T13:42:55.554Z,26.27
2019-02-28T13:45:24.682Z,26.63
2019-02-28T13:47:53.554Z,25.60
2019-02-28T13:50:25.707Z,27.73
2019-02-28T13:52:54.491Z,24.90
2019-02-28T13:55:23.364Z,26.62
2019-02-28T13:57:52.263Z,28.45
2019-02-28T14:00:23.257Z,26.68
2019-02-28T14:02:57.066Z,27.87
2019-02-28T14:05:25.992Z,27.58
2019-02-28T14:07:54.990Z,33.33
2019-02-28T14:10:24.477Z,25.62
2019-02-28T14:12:57.064Z,23.00
2019-02-28T14:15:27.809Z,22.02
2019-02-28T14:17:56.654Z,22.67
2019-02-28T14:20:27.578Z,24.18
2019-02-28T14:22:56.313Z,24.98
2019-02-28T14:25:25.441Z,23.77
2019-02-28T14:27:56.980Z,22.42
2019-02-28T14:30:25.487Z,23.38
2019-02-28T14:32:54.452Z,22.80
2019-02-28T14:35:23.544Z,27.67
2019-02-28T14:37:55.650Z,24.20
2019-02-28T14:40:23.747Z,22.50
2019-02-28T14:42:52.752Z,23.95
2019-02-28T14:45:21.952Z,21.30
2019-02-28T14:47:56.833Z,25.67
2019-02-28T14:50:23.041Z,22.52
2019-02-28T14:52:53.282Z,22.67
2019-02-28T14:55:22.376Z,22.62
2019-02-28T14:57:51.579Z,23.47
2019-02-28T15:00:24.495Z,22.25
2019-02-28T15:02:53.364Z,25.62
2019-02-28T15:05:22.218Z,21.68
2019-02-28T15:07:51.648Z,23.60
2019-02-28T15:10:20.694Z,20.08
2019-02-28T15:12:49.705Z,21.07
2019-02-28T15:15:19.122Z,20.13
2019-02-28T15:17:48.496Z,20.10
2019-02-28T15:20:17.538Z,22.55
2019-02-28T15:22:46.490Z,20.52
2019-02-28T15:25:18.475Z,19.17
2019-02-28T15:27:47.303Z,19.32
2019-02-28T15:30:18.759Z,21.45
2019-02-28T15:32:50.724Z,22.15
2019-02-28T15:35:19.235Z,20.50
2019-02-28T15:37:48.059Z,21.25
2019-02-28T15:40:21.500Z,20.88
2019-02-28T15:42:49.952Z,21.45
2019-02-28T15:45:18.898Z,20.15
2019-02-28T15:47:47.879Z,19.32
2019-02-28T15:50:17.144Z,24.20
2019-02-28T15:52:46.272Z,20.62
2019-02-28T15:55:15.338Z,21.15
2019-02-28T15:57:44.563Z,20.70
2019-02-28T16:00:25.102Z,21.00
2019-02-28T16:02:54.150Z,21.40
2019-02-28T16:05:23.870Z,23.35
2019-02-28T16:07:53.206Z,21.45
2019-02-28T16:10:23.987Z,24.37
2019-02-28T16:12:53.154Z,26.10
2019-02-28T16:15:22.096Z,25.27
2019-02-28T16:17:51.150Z,23.83
2019-02-28T16:20:20.047Z,22.52
2019-02-28T16:22:52.150Z,26.52
2019-02-28T16:25:22.058Z,23.05
2019-02-28T16:27:51.198Z,24.23
2019-02-28T16:30:20.202Z,26.03
2019-02-28T16:32:50.142Z,25.37
2019-02-28T16:35:19.224Z,25.30
2019-02-28T16:37:48.043Z,21.17
2019-02-28T16:40:20.791Z,25.88
2019-02-28T16:42:48.878Z,23.27
2019-02-28T16:45:29.349Z,24.65
2019-02-28T16:47:59.583Z,25.00
2019-02-28T16:50:29.350Z,25.37
2019-02-28T16:52:58.228Z,24.32
2019-02-28T16:55:30.591Z,24.63
2019-02-28T16:57:58.110Z,24.05
2019-02-28T17:00:27.130Z,23.70
2019-02-28T17:02:55.957Z,25.32
2019-02-28T17:05:28.131Z,26.17
2019-02-28T17:07:55.443Z,26.93
2019-02-28T17:10:29.854Z,26.63
2019-02-28T17:13:29.818Z,27.62
2019-02-28T17:16:20.530Z,26.85
2019-02-28T17:18:49.569Z,25.48
2019-02-28T17:21:19.541Z,25.77
2019-02-28T17:23:48.443Z,24.45
2019-02-28T17:26:18.211Z,25.65
2019-02-28T17:29:06.464Z,25.17
2019-02-28T17:31:48.154Z,24.40
2019-02-28T17:34:23.657Z,27.10
2019-02-28T17:36:49.794Z,26.07
2019-02-28T17:39:18.779Z,25.60
2019-02-28T17:41:47.754Z,24.98
2019-02-28T17:45:10.160Z,25.85
2019-02-28T17:48:23.531Z,23.73
2019-02-28T17:50:59.535Z,23.70
2019-02-28T17:54:05.290Z,25.77
2019-02-28T17:57:09.312Z,29.82
2019-02-28T18:00:06.955Z,29.63
2019-02-28T18:03:00.817Z,25.00
2019-02-28T18:06:08.856Z,25.47
2019-02-28T18:09:12.714Z,26.97
2019-02-28T18:12:33.123Z,26.12
2019-02-28T18:15:16.582Z,28.73
2019-02-28T18:18:08.800Z,26.00
2019-02-28T18:21:25.886Z,27.40
2019-02-28T18:24:18.563Z,25.40
2019-02-28T18:27:32.421Z,27.27
2019-02-28T18:30:48.686Z,25.77
2019-02-28T18:33:19.452Z,27.13
2019-02-28T18:35:48.398Z,27.40
2019-02-28T18:38:17.216Z,26.23
2019-02-28T18:40:46.076Z,28.90
2019-02-28T18:43:14.863Z,27.10
2019-02-28T18:45:43.774Z,24.37
2019-02-28T18:48:14.634Z,23.62
2019-02-28T18:50:43.260Z,25.37
2019-02-28T18:53:12.107Z,23.97
2019-02-28T18:55:41.186Z,27.10
2019-02-28T18:58:10.146Z,21.57
2019-02-28T19:00:39.141Z,22.52
2019-02-28T19:03:08.140Z,22.77
2019-02-28T19:05:36.918Z,21.68
2019-02-28T19:08:05.879Z,21.12
2019-02-28T19:10:34.809Z,24.23
2019-02-28T19:13:03.599Z,23.07
2019-02-28T19:15:32.468Z,25.48
2019-02-28T19:18:01.362Z,21.45
2019-02-28T19:20:30.222Z,23.95
2019-02-28T19:22:59.022Z,21.50
2019-02-28T19:25:27.836Z,21.62
2019-02-28T19:27:56.602Z,22.20
2019-02-28T19:30:25.423Z,22.87
2019-02-28T19:32:54.240Z,27.73
2019-02-28T19:35:23.106Z,20.60
2019-02-28T19:37:51.979Z,21.75
2019-02-28T19:40:20.843Z,23.92
2019-02-28T19:42:49.650Z,23.17
2019-02-28T19:45:18.560Z,22.82
2019-02-28T19:47:47.686Z,21.77
2019-02-28T19:50:16.595Z,20.70
2019-02-28T19:52:45.529Z,24.30
2019-02-28T19:55:14.487Z,21.77
2019-02-28T19:57:43.433Z,25.30
2019-02-28T20:00:14.414Z,22.93
2019-02-28T20:02:43.379Z,22.32
2019-02-28T20:05:12.751Z,27.62
2019-02-28T20:07:41.762Z,23.47
2019-02-28T20:10:13.228Z,22.95
2019-02-28T20:12:42.008Z,25.88
2019-02-28T20:15:13.079Z,21.95
2019-02-28T20:17:42.090Z,24.25
2019-02-28T20:20:13.363Z,24.35
2019-02-28T20:22:42.326Z,23.33
2019-02-28T20:25:12.002Z,27.62
2019-02-28T20:27:40.970Z,24.27
2019-02-28T20:30:12.455Z,27.02
2019-02-28T20:32:41.360Z,26.20
2019-02-28T20:35:10.419Z,25.80
2019-02-28T20:37:39.422Z,24.57
2019-02-28T20:40:10.258Z,28.65
2019-02-28T20:42:39.042Z,25.82
2019-02-28T20:45:08.651Z,25.80
2019-02-28T20:47:37.503Z,28.17
2019-02-28T20:50:10.506Z,28.57
2019-02-28T20:52:39.377Z,24.63
2019-02-28T20:55:10.198Z,25.48
2019-02-28T20:57:39.087Z,24.60
2019-02-28T21:00:10.424Z,27.48
2019-02-28T21:02:41.776Z,27.70
2019-02-28T21:05:10.746Z,25.90
2019-02-28T21:07:39.650Z,27.32
2019-02-28T21:10:09.024Z,22.95
2019-02-28T21:12:37.946Z,23.22
2019-02-28T21:15:07.507Z,21.07
2019-02-28T21:17:36.484Z,21.77
2019-02-28T21:20:06.179Z,23.22
2019-02-28T21:22:34.989Z,22.67
2019-02-28T21:25:04.259Z,21.90
2019-02-28T21:27:33.044Z,22.37
2019-02-28T21:30:01.868Z,25.08
2019-02-28T21:32:30.663Z,20.20
2019-02-28T21:34:59.650Z,24.47
2019-02-28T21:37:28.520Z,21.48
2019-02-28T21:40:00.627Z,20.82
2019-02-28T21:42:29.066Z,21.97
2019-02-28T21:44:58.179Z,23.40
2019-02-28T21:47:27.021Z,21.57
2019-02-28T21:49:56.227Z,23.67
2019-02-28T21:52:25.132Z,20.43
2019-02-28T21:54:54.351Z,20.77
2019-02-28T21:57:26.600Z,20.43
2019-02-28T21:59:55.479Z,23.25
2019-02-28T22:02:24.503Z,23.05
2019-02-28T22:04:53.858Z,21.40
2019-02-28T22:07:22.677Z,22.52
2019-02-28T22:09:51.695Z,21.47
2019-02-28T22:12:20.676Z,21.23
2019-02-28T22:14:49.538Z,21.17
2019-02-28T22:17:21.518Z,21.27
2019-02-28T22:19:50.808Z,20.57
2019-02-28T22:22:19.605Z,23.45
2019-02-28T22:24:49.089Z,21.27
2019-02-28T22:27:18.262Z,21.42
2019-02-28T22:29:47.086Z,21.80
2019-02-28T22:32:24.693Z,21.70
2019-02-28T22:35:21.356Z,19.82
2019-02-28T22:37:50.238Z,20.10
2019-02-28T22:40:19.054Z,19.37
2019-02-28T22:42:47.929Z,20.95
2019-02-28T22:45:16.852Z,17.67
2019-02-28T22:47:45.702Z,18.25
2019-02-28T22:50:14.610Z,22.17
2019-02-28T22:52:43.436Z,20.02
2019-02-28T22:55:13.884Z,18.82
2019-02-28T22:57:42.685Z,23.40
2019-02-28T23:00:21.523Z,19.02
2019-02-28T23:02:50.431Z,20.15
2019-02-28T23:05:19.291Z,23.97
2019-02-28T23:07:48.144Z,22.87
2019-02-28T23:10:16.940Z,19.40
2019-02-28T23:12:45.799Z,18.57
2019-02-28T23:15:14.719Z,18.85
2019-02-28T23:17:43.613Z,20.40
2019-02-28T23:20:12.480Z,20.35
2019-02-28T23:22:41.399Z,20.12
2019-02-28T23:25:10.308Z,20.37
2019-02-28T23:27:39.202Z,21.37
2019-02-28T23:30:37.521Z,18.70
2019-02-28T23:33:10.423Z,18.30
2019-02-28T23:35:41.990Z,18.65
2019-02-28T23:38:10.779Z,19.35
2019-02-28T23:40:39.639Z,20.43
2019-02-28T23:43:08.626Z,18.75
2019-02-28T23:45:37.519Z,17.37
2019-02-28T23:48:06.552Z,21.17
2019-02-28T23:50:35.450Z,20.02
2019-02-28T23:53:04.681Z,21.05
2019-02-28T23:55:33.550Z,21.13
2019-02-28T23:58:02.585Z,19.25
